createdAt,value
2023-04-13T00:02:41.780Z,4.45
2023-04-13T00:08:45.072Z,4.36
2023-04-13T00:14:50.735Z,4.37
2023-04-13T00:20:52.654Z,4.39
2023-04-13T00:26:54.607Z,4.29
2023-04-13T00:32:56.627Z,4.15
2023-04-13T00:38:58.885Z,4.28
2023-04-13T00:45:00.772Z,4.14
2023-04-13T00:51:03.811Z,4.04
2023-04-13T00:57:06.814Z,3.93
2023-04-13T01:03:09.794Z,3.81
2023-04-13T01:09:20.085Z,4.07
2023-04-13T01:15:23.223Z,4.22
2023-04-13T01:21:29.152Z,4.43
2023-04-13T01:27:52.738Z,4.33
2023-04-13T01:33:54.710Z,4.29
2023-04-13T01:39:56.571Z,4.33
2023-04-13T01:46:13.936Z,4.34
2023-04-13T01:52:17.750Z,4.51
2023-04-13T01:58:20.612Z,4.38
2023-04-13T02:04:23.411Z,4.26
2023-04-13T02:10:26.513Z,4.20
2023-04-13T02:16:28.550Z,4.16
2023-04-13T02:22:30.437Z,4.05
2023-04-13T02:28:33.058Z,4.14
2023-04-13T02:34:35.526Z,4.19
2023-04-13T02:40:38.769Z,4.20
2023-04-13T02:46:40.880Z,4.44
2023-04-13T02:52:43.836Z,4.45
2023-04-13T02:58:45.919Z,4.85
2023-04-13T03:04:48.826Z,4.78
2023-04-13T03:10:52.328Z,4.68
2023-04-13T03:16:54.573Z,4.57
2023-04-13T03:22:58.504Z,4.67
2023-04-13T03:29:00.408Z,5.12
2023-04-13T03:35:02.336Z,5.19
2023-04-13T03:41:04.523Z,5.35
2023-04-13T03:47:09.523Z,5.47
2023-04-13T03:53:11.388Z,5.42
2023-04-13T03:59:13.268Z,5.52
2023-04-13T04:05:16.425Z,5.71
2023-04-13T04:11:18.537Z,5.71
2023-04-13T04:17:20.999Z,5.71
2023-04-13T04:23:23.238Z,5.84
2023-04-13T04:29:34.563Z,5.90
2023-04-13T04:35:43.193Z,6.04
2023-04-13T04:41:45.115Z,5.91
2023-04-13T04:47:49.988Z,6.32
2023-04-13T04:53:53.123Z,6.19
2023-04-13T04:59:55.143Z,6.14
2023-04-13T05:05:57.023Z,6.26
2023-04-13T05:11:58.917Z,6.49
2023-04-13T05:18:00.838Z,6.60
2023-04-13T05:24:02.819Z,6.68
2023-04-13T05:30:06.188Z,7.05
2023-04-13T05:36:08.634Z,7.01
2023-04-13T05:42:10.856Z,7.33
2023-04-13T05:48:13.141Z,7.48
2023-04-13T05:54:15.071Z,7.56
2023-04-13T06:00:19.418Z,7.85
2023-04-13T06:06:21.496Z,8.00
2023-04-13T06:12:23.985Z,8.25
2023-04-13T06:18:29.140Z,8.36
2023-04-13T06:24:31.019Z,8.52
2023-04-13T06:30:33.259Z,8.90
2023-04-13T06:36:35.741Z,8.98
2023-04-13T06:42:38.359Z,9.07
2023-04-13T06:48:40.518Z,8.90
2023-04-13T06:54:42.417Z,9.00
2023-04-13T07:00:44.426Z,9.20
2023-04-13T07:06:46.981Z,9.04
2023-04-13T07:12:48.960Z,9.18
2023-04-13T07:18:50.885Z,8.98
2023-04-13T07:24:52.760Z,8.94
2023-04-13T07:30:54.689Z,9.13
2023-04-13T07:36:56.880Z,8.81
2023-04-13T07:42:58.805Z,9.07
2023-04-13T07:49:01.017Z,9.01
2023-04-13T07:55:03.606Z,9.46
2023-04-13T08:01:06.465Z,9.48
2023-04-13T08:07:08.404Z,9.86
2023-04-13T08:13:10.332Z,10.10
2023-04-13T08:19:13.273Z,10.71
2023-04-13T08:25:15.598Z,11.55
2023-04-13T08:31:17.591Z,12.21
2023-04-13T08:37:20.863Z,12.69
2023-04-13T08:43:22.814Z,12.69
2023-04-13T08:49:25.987Z,12.74
2023-04-13T08:55:29.391Z,12.23
2023-04-13T09:01:36.360Z,12.11
2023-04-13T09:07:38.798Z,12.11
2023-04-13T09:13:41.371Z,11.83
2023-04-13T09:19:43.246Z,11.32
2023-04-13T09:25:47.217Z,11.56
2023-04-13T09:31:49.268Z,11.70
2023-04-13T09:37:55.994Z,12.26
2023-04-13T09:44:20.752Z,12.98
2023-04-13T09:50:28.859Z,12.73
2023-04-13T09:56:31.957Z,11.86
2023-04-13T10:02:34.147Z,12.67
2023-04-13T10:08:41.963Z,14.13
2023-04-13T10:14:48.736Z,14.23
2023-04-13T10:20:52.553Z,12.50
2023-04-13T10:26:56.239Z,12.90
2023-04-13T10:33:09.881Z,15.13
2023-04-13T10:39:12.054Z,16.69
2023-04-13T10:45:18.089Z,18.61
2023-04-13T10:51:20.199Z,16.87
2023-04-13T10:57:22.157Z,15.93
2023-04-13T11:03:28.708Z,16.01
2023-04-13T11:09:31.716Z,13.84
2023-04-13T11:15:34.173Z,12.59
2023-04-13T11:21:36.050Z,11.90
2023-04-13T11:27:38.288Z,11.45
2023-04-13T11:33:41.028Z,10.47
2023-04-13T11:39:46.383Z,9.48
2023-04-13T11:45:48.998Z,9.84
2023-04-13T11:51:51.585Z,10.85
2023-04-13T11:57:54.516Z,16.46
2023-04-13T12:04:14.753Z,20.48
2023-04-13T12:10:39.269Z,20.23
2023-04-13T12:17:03.994Z,18.55
2023-04-13T12:23:24.845Z,16.58
2023-04-13T12:29:27.122Z,16.74
2023-04-13T12:35:29.035Z,22.47
2023-04-13T12:41:32.331Z,25.09
2023-04-13T12:47:34.454Z,22.71
2023-04-13T12:53:36.464Z,20.92
2023-04-13T12:59:38.572Z,18.61
2023-04-13T13:05:40.627Z,17.33
2023-04-13T13:11:42.529Z,16.45
2023-04-13T13:17:44.536Z,16.34
2023-04-13T13:23:46.558Z,20.08
2023-04-13T13:29:48.544Z,18.27
2023-04-13T13:35:50.441Z,16.01
2023-04-13T13:41:52.338Z,16.03
2023-04-13T13:47:58.382Z,18.64
2023-04-13T13:54:00.374Z,21.26
2023-04-13T14:00:05.097Z,23.14
2023-04-13T14:06:07.814Z,23.05
2023-04-13T14:12:09.910Z,20.57
2023-04-13T14:18:12.102Z,19.52
2023-04-13T14:24:14.149Z,18.42
2023-04-13T14:30:17.670Z,19.18
2023-04-13T14:36:19.581Z,22.74
2023-04-13T14:42:22.422Z,20.81
2023-04-13T14:48:24.772Z,18.98
2023-04-13T14:54:26.699Z,17.54
2023-04-13T15:00:41.316Z,16.93
2023-04-13T15:06:43.779Z,15.94
2023-04-13T15:12:45.877Z,15.63
2023-04-13T15:18:47.784Z,15.34
2023-04-13T15:24:49.748Z,14.85
2023-04-13T15:30:54.577Z,14.38
2023-04-13T15:36:57.059Z,12.58
2023-04-13T15:42:59.049Z,11.82
2023-04-13T15:49:01.314Z,11.56
2023-04-13T15:55:03.739Z,11.04
2023-04-13T16:01:09.377Z,10.88
2023-04-13T16:07:14.344Z,10.58
2023-04-13T16:13:19.736Z,10.27
2023-04-13T16:19:21.681Z,10.33
2023-04-13T16:25:23.867Z,10.16
2023-04-13T16:31:26.153Z,9.86
2023-04-13T16:37:28.049Z,9.81
2023-04-13T16:43:29.948Z,9.75
2023-04-13T16:49:32.498Z,9.36
2023-04-13T16:55:34.388Z,8.97
2023-04-13T17:01:39.106Z,8.89
2023-04-13T17:07:44.503Z,8.83
2023-04-13T17:13:46.857Z,8.85
2023-04-13T17:19:51.286Z,8.94
2023-04-13T17:25:53.904Z,9.13
2023-04-13T17:31:56.565Z,8.95
2023-04-13T17:37:58.465Z,8.96
2023-04-13T17:44:01.519Z,9.07
2023-04-13T17:50:03.575Z,9.36
2023-04-13T17:56:05.885Z,9.77
2023-04-13T18:02:07.858Z,9.51
2023-04-13T18:08:09.805Z,9.29
2023-04-13T18:14:13.114Z,9.17
2023-04-13T18:20:15.014Z,9.10
2023-04-13T18:26:17.213Z,8.87
2023-04-13T18:32:19.171Z,8.58
2023-04-13T18:38:21.491Z,8.47
2023-04-13T18:44:23.584Z,8.22
2023-04-13T18:50:26.679Z,7.87
2023-04-13T18:56:28.611Z,7.68
2023-04-13T19:02:30.731Z,7.51
2023-04-13T19:08:32.939Z,7.38
2023-04-13T19:14:34.879Z,7.25
2023-04-13T19:20:36.774Z,7.10
2023-04-13T19:26:42.826Z,6.98
2023-04-13T19:32:46.841Z,6.80
2023-04-13T19:38:48.918Z,6.63
2023-04-13T19:44:51.629Z,6.54
2023-04-13T19:50:53.572Z,6.32
2023-04-13T19:56:55.688Z,6.11
2023-04-13T20:03:03.051Z,6.20
2023-04-13T20:09:14.390Z,6.06
2023-04-13T20:15:17.577Z,6.07
2023-04-13T20:21:19.484Z,6.03
2023-04-13T20:27:22.632Z,5.81
2023-04-13T20:33:24.615Z,5.86
2023-04-13T20:39:30.162Z,6.07
2023-04-13T20:45:32.204Z,6.05
2023-04-13T20:51:34.214Z,5.98
2023-04-13T20:57:41.684Z,6.09
2023-04-13T21:03:43.793Z,6.23
2023-04-13T21:09:46.164Z,6.42
2023-04-13T21:15:48.121Z,6.38
2023-04-13T21:21:50.005Z,6.35
2023-04-13T21:27:52.028Z,6.55
2023-04-13T21:33:55.246Z,6.60
2023-04-13T21:39:57.813Z,6.56
2023-04-13T21:45:59.786Z,6.65
2023-04-13T21:52:01.771Z,6.77
2023-04-13T21:58:03.717Z,6.80
2023-04-13T22:04:06.261Z,6.91
2023-04-13T22:10:08.826Z,6.90
2023-04-13T22:16:10.894Z,6.95
2023-04-13T22:22:12.813Z,7.05
2023-04-13T22:28:14.695Z,7.00
2023-04-13T22:34:16.640Z,6.99
2023-04-13T22:40:18.755Z,7.01
2023-04-13T22:46:20.841Z,6.97
2023-04-13T22:52:22.782Z,6.99
2023-04-13T22:58:24.762Z,6.88
2023-04-13T23:04:26.865Z,6.96
2023-04-13T23:10:31.503Z,6.80
2023-04-13T23:16:34.542Z,6.72
2023-04-13T23:22:37.269Z,6.67
2023-04-13T23:28:39.228Z,6.66
2023-04-13T23:34:41.242Z,6.60
2023-04-13T23:40:43.177Z,6.64
2023-04-13T23:46:45.564Z,6.69
2023-04-13T23:52:47.487Z,6.69
2023-04-13T23:58:49.418Z,6.72
